sensor_id;sensor_type;location;lat;lon;timestamp;P1;durP1;ratioP1;P2;durP2;ratioP2
3901;SDS011;1966;49.908;9.156;2023-01-25T00:04:49;13.17;;;8.37;;
3901;SDS011;1966;49.908;9.156;2023-01-25T00:09:48;11.77;;;7.60;;
3901;SDS011;1966;49.908;9.156;2023-01-25T00:14:47;10.47;;;6.80;;
3901;SDS011;1966;49.908;9.156;2023-01-25T00:19:48;12.40;;;7.87;;
3901;SDS011;1966;49.908;9.156;2023-01-25T00:24:47;12.60;;;8.10;;
3901;SDS011;1966;49.908;9.156;2023-01-25T00:29:47;13.90;;;7.97;;
3901;SDS011;1966;49.908;9.156;2023-01-25T00:40:22;11.57;;;7.77;;
3901;SDS011;1966;49.908;9.156;2023-01-25T00:45:22;13.60;;;8.63;;
3901;SDS011;1966;49.908;9.156;2023-01-25T00:50:21;12.73;;;7.97;;
3901;SDS011;1966;49.908;9.156;2023-01-25T00:55:20;15.10;;;9.20;;
3901;SDS011;1966;49.908;9.156;2023-01-25T01:00:21;13.20;;;8.73;;
3901;SDS011;1966;49.908;9.156;2023-01-25T01:05:20;14.57;;;9.07;;
3901;SDS011;1966;49.908;9.156;2023-01-25T01:10:19;16.43;;;9.40;;
3901;SDS011;1966;49.908;9.156;2023-01-25T01:20:55;13.77;;;8.27;;
3901;SDS011;1966;49.908;9.156;2023-01-25T01:25:55;15.70;;;9.40;;
3901;SDS011;1966;49.908;9.156;2023-01-25T01:30:58;15.17;;;9.20;;
3901;SDS011;1966;49.908;9.156;2023-01-25T01:35:59;13.33;;;7.80;;
3901;SDS011;1966;49.908;9.156;2023-01-25T01:41:04;12.63;;;8.23;;
3901;SDS011;1966;49.908;9.156;2023-01-25T01:46:04;14.20;;;8.67;;
3901;SDS011;1966;49.908;9.156;2023-01-25T01:51:07;15.57;;;9.47;;
3901;SDS011;1966;49.908;9.156;2023-01-25T01:56:12;14.27;;;9.63;;
3901;SDS011;1966;49.908;9.156;2023-01-25T02:01:12;14.53;;;9.23;;
3901;SDS011;1966;49.908;9.156;2023-01-25T02:06:13;15.10;;;9.00;;
3901;SDS011;1966;49.908;9.156;2023-01-25T02:11:13;15.67;;;9.07;;
3901;SDS011;1966;49.908;9.156;2023-01-25T02:16:13;15.30;;;8.33;;
3901;SDS011;1966;49.908;9.156;2023-01-25T02:21:15;14.47;;;8.00;;
3901;SDS011;1966;49.908;9.156;2023-01-25T02:26:16;15.00;;;9.47;;
3901;SDS011;1966;49.908;9.156;2023-01-25T02:31:16;14.70;;;8.30;;
3901;SDS011;1966;49.908;9.156;2023-01-25T02:36:17;13.67;;;8.10;;
3901;SDS011;1966;49.908;9.156;2023-01-25T02:41:20;13.13;;;7.27;;
3901;SDS011;1966;49.908;9.156;2023-01-25T02:46:22;15.93;;;8.60;;
3901;SDS011;1966;49.908;9.156;2023-01-25T02:51:23;13.47;;;8.00;;
3901;SDS011;1966;49.908;9.156;2023-01-25T02:56:24;15.00;;;8.40;;
3901;SDS011;1966;49.908;9.156;2023-01-25T03:01:23;13.43;;;8.70;;
3901;SDS011;1966;49.908;9.156;2023-01-25T03:06:23;12.63;;;7.90;;
3901;SDS011;1966;49.908;9.156;2023-01-25T03:11:22;16.17;;;9.70;;
3901;SDS011;1966;49.908;9.156;2023-01-25T03:16:22;12.03;;;7.47;;
3901;SDS011;1966;49.908;9.156;2023-01-25T03:21:22;12.93;;;8.07;;
3901;SDS011;1966;49.908;9.156;2023-01-25T03:26:22;14.73;;;8.40;;
3901;SDS011;1966;49.908;9.156;2023-01-25T03:31:22;13.63;;;8.20;;
3901;SDS011;1966;49.908;9.156;2023-01-25T03:36:22;15.63;;;8.83;;
3901;SDS011;1966;49.908;9.156;2023-01-25T03:41:21;14.20;;;8.17;;
3901;SDS011;1966;49.908;9.156;2023-01-25T03:46:23;13.33;;;7.70;;
3901;SDS011;1966;49.908;9.156;2023-01-25T03:51:22;12.43;;;8.10;;
3901;SDS011;1966;49.908;9.156;2023-01-25T03:56:21;12.63;;;7.73;;
3901;SDS011;1966;49.908;9.156;2023-01-25T04:01:21;13.67;;;7.73;;
3901;SDS011;1966;49.908;9.156;2023-01-25T04:06:21;20.73;;;9.03;;
3901;SDS011;1966;49.908;9.156;2023-01-25T04:11:20;13.97;;;8.50;;
3901;SDS011;1966;49.908;9.156;2023-01-25T04:16:20;13.90;;;8.17;;
3901;SDS011;1966;49.908;9.156;2023-01-25T04:21:19;15.87;;;8.60;;
3901;SDS011;1966;49.908;9.156;2023-01-25T04:26:19;12.33;;;8.07;;
3901;SDS011;1966;49.908;9.156;2023-01-25T04:31:19;15.40;;;8.97;;
3901;SDS011;1966;49.908;9.156;2023-01-25T04:36:18;14.83;;;9.13;;
3901;SDS011;1966;49.908;9.156;2023-01-25T04:41:17;13.80;;;7.97;;
3901;SDS011;1966;49.908;9.156;2023-01-25T04:46:18;15.40;;;8.30;;
3901;SDS011;1966;49.908;9.156;2023-01-25T04:51:17;13.20;;;8.07;;
3901;SDS011;1966;49.908;9.156;2023-01-25T04:56:16;13.20;;;7.90;;
3901;SDS011;1966;49.908;9.156;2023-01-25T05:01:15;14.50;;;8.13;;
3901;SDS011;1966;49.908;9.156;2023-01-25T05:06:16;13.33;;;7.70;;
3901;SDS011;1966;49.908;9.156;2023-01-25T05:11:15;12.50;;;7.07;;
3901;SDS011;1966;49.908;9.156;2023-01-25T05:16:14;14.10;;;8.27;;
3901;SDS011;1966;49.908;9.156;2023-01-25T05:21:13;17.10;;;8.57;;
3901;SDS011;1966;49.908;9.156;2023-01-25T05:26:28;13.60;;;8.13;;
3901;SDS011;1966;49.908;9.156;2023-01-25T05:31:45;12.67;;;7.93;;
3901;SDS011;1966;49.908;9.156;2023-01-25T05:36:44;15.23;;;8.80;;
3901;SDS011;1966;49.908;9.156;2023-01-25T05:41:45;13.17;;;7.47;;
3901;SDS011;1966;49.908;9.156;2023-01-25T05:46:44;15.10;;;8.77;;
3901;SDS011;1966;49.908;9.156;2023-01-25T05:51:43;17.63;;;8.80;;
3901;SDS011;1966;49.908;9.156;2023-01-25T05:56:44;15.87;;;8.13;;
3901;SDS011;1966;49.908;9.156;2023-01-25T06:01:43;16.17;;;9.10;;
3901;SDS011;1966;49.908;9.156;2023-01-25T06:06:43;15.27;;;8.83;;
3901;SDS011;1966;49.908;9.156;2023-01-25T06:11:42;13.83;;;9.03;;
3901;SDS011;1966;49.908;9.156;2023-01-25T06:16:43;15.27;;;7.93;;
3901;SDS011;1966;49.908;9.156;2023-01-25T06:21:42;13.67;;;8.23;;
3901;SDS011;1966;49.908;9.156;2023-01-25T06:26:41;14.30;;;8.30;;
3901;SDS011;1966;49.908;9.156;2023-01-25T06:31:40;16.43;;;9.80;;
3901;SDS011;1966;49.908;9.156;2023-01-25T06:36:41;15.47;;;8.97;;
3901;SDS011;1966;49.908;9.156;2023-01-25T06:41:40;15.90;;;9.13;;
3901;SDS011;1966;49.908;9.156;2023-01-25T06:46:39;13.97;;;8.07;;
3901;SDS011;1966;49.908;9.156;2023-01-25T06:51:40;16.37;;;8.73;;
3901;SDS011;1966;49.908;9.156;2023-01-25T06:56:39;14.40;;;8.37;;
3901;SDS011;1966;49.908;9.156;2023-01-25T07:01:38;13.70;;;8.30;;
3901;SDS011;1966;49.908;9.156;2023-01-25T07:06:38;14.87;;;8.33;;
3901;SDS011;1966;49.908;9.156;2023-01-25T07:11:38;16.20;;;8.33;;
3901;SDS011;1966;49.908;9.156;2023-01-25T07:16:38;12.73;;;8.03;;
3901;SDS011;1966;49.908;9.156;2023-01-25T07:21:37;13.20;;;7.90;;
3901;SDS011;1966;49.908;9.156;2023-01-25T07:26:36;12.60;;;7.40;;
3901;SDS011;1966;49.908;9.156;2023-01-25T07:31:37;13.67;;;8.00;;
3901;SDS011;1966;49.908;9.156;2023-01-25T07:36:36;12.27;;;7.00;;
3901;SDS011;1966;49.908;9.156;2023-01-25T07:41:36;14.20;;;8.30;;
3901;SDS011;1966;49.908;9.156;2023-01-25T07:46:35;14.17;;;7.77;;
3901;SDS011;1966;49.908;9.156;2023-01-25T07:51:36;13.77;;;7.93;;
3901;SDS011;1966;49.908;9.156;2023-01-25T07:56:35;14.13;;;8.17;;
3901;SDS011;1966;49.908;9.156;2023-01-25T08:01:36;13.90;;;8.07;;
3901;SDS011;1966;49.908;9.156;2023-01-25T08:06:38;13.30;;;7.60;;
3901;SDS011;1966;49.908;9.156;2023-01-25T08:11:37;13.90;;;7.80;;
3901;SDS011;1966;49.908;9.156;2023-01-25T08:16:36;13.43;;;7.87;;
3901;SDS011;1966;49.908;9.156;2023-01-25T08:21:35;12.17;;;7.30;;
3901;SDS011;1966;49.908;9.156;2023-01-25T08:26:39;14.03;;;7.43;;
3901;SDS011;1966;49.908;9.156;2023-01-25T08:31:39;14.93;;;8.37;;
3901;SDS011;1966;49.908;9.156;2023-01-25T08:36:40;14.37;;;7.80;;
3901;SDS011;1966;49.908;9.156;2023-01-25T08:41:41;11.10;;;7.50;;
3901;SDS011;1966;49.908;9.156;2023-01-25T08:46:40;16.30;;;9.20;;
3901;SDS011;1966;49.908;9.156;2023-01-25T08:51:40;13.80;;;8.40;;
3901;SDS011;1966;49.908;9.156;2023-01-25T08:56:41;13.70;;;8.80;;
3901;SDS011;1966;49.908;9.156;2023-01-25T09:01:40;19.20;;;9.33;;
3901;SDS011;1966;49.908;9.156;2023-01-25T09:06:39;18.53;;;9.57;;
3901;SDS011;1966;49.908;9.156;2023-01-25T09:11:38;13.80;;;8.63;;
3901;SDS011;1966;49.908;9.156;2023-01-25T09:16:39;14.33;;;8.40;;
3901;SDS011;1966;49.908;9.156;2023-01-25T09:21:38;16.67;;;9.17;;
3901;SDS011;1966;49.908;9.156;2023-01-25T09:26:38;15.10;;;8.80;;
3901;SDS011;1966;49.908;9.156;2023-01-25T09:31:39;14.17;;;8.30;;
3901;SDS011;1966;49.908;9.156;2023-01-25T09:36:40;15.90;;;9.47;;
3901;SDS011;1966;49.908;9.156;2023-01-25T09:41:44;15.43;;;9.87;;
3901;SDS011;1966;49.908;9.156;2023-01-25T09:46:52;15.17;;;8.70;;
3901;SDS011;1966;49.908;9.156;2023-01-25T09:51:58;14.90;;;8.70;;
3901;SDS011;1966;49.908;9.156;2023-01-25T09:57:01;14.90;;;8.83;;
3901;SDS011;1966;49.908;9.156;2023-01-25T10:02:02;13.73;;;7.93;;
3901;SDS011;1966;49.908;9.156;2023-01-25T10:07:05;13.17;;;7.93;;
3901;SDS011;1966;49.908;9.156;2023-01-25T10:12:12;15.50;;;8.70;;
3901;SDS011;1966;49.908;9.156;2023-01-25T10:17:25;12.27;;;7.87;;
3901;SDS011;1966;49.908;9.156;2023-01-25T10:22:26;14.20;;;8.43;;
3901;SDS011;1966;49.908;9.156;2023-01-25T10:27:27;16.20;;;9.30;;
3901;SDS011;1966;49.908;9.156;2023-01-25T10:32:33;18.73;;;8.90;;
3901;SDS011;1966;49.908;9.156;2023-01-25T10:37:32;14.87;;;7.90;;
3901;SDS011;1966;49.908;9.156;2023-01-25T10:42:35;18.30;;;9.10;;
3901;SDS011;1966;49.908;9.156;2023-01-25T10:47:39;19.63;;;10.60;;
3901;SDS011;1966;49.908;9.156;2023-01-25T10:52:39;18.83;;;10.43;;
3901;SDS011;1966;49.908;9.156;2023-01-25T10:57:46;15.87;;;8.90;;
3901;SDS011;1966;49.908;9.156;2023-01-25T11:02:48;16.77;;;9.10;;
3901;SDS011;1966;49.908;9.156;2023-01-25T11:07:47;14.47;;;8.70;;
3901;SDS011;1966;49.908;9.156;2023-01-25T11:12:46;13.90;;;8.27;;
3901;SDS011;1966;49.908;9.156;2023-01-25T11:17:47;14.17;;;8.67;;
3901;SDS011;1966;49.908;9.156;2023-01-25T11:23:02;15.50;;;8.60;;
3901;SDS011;1966;49.908;9.156;2023-01-25T11:28:11;13.13;;;8.50;;
3901;SDS011;1966;49.908;9.156;2023-01-25T11:33:14;13.00;;;7.93;;
3901;SDS011;1966;49.908;9.156;2023-01-25T11:38:15;14.27;;;9.10;;
3901;SDS011;1966;49.908;9.156;2023-01-25T11:43:20;12.47;;;8.10;;
3901;SDS011;1966;49.908;9.156;2023-01-25T11:48:29;16.03;;;8.60;;
3901;SDS011;1966;49.908;9.156;2023-01-25T11:53:39;12.83;;;7.13;;
3901;SDS011;1966;49.908;9.156;2023-01-25T11:58:49;13.73;;;8.90;;
3901;SDS011;1966;49.908;9.156;2023-01-25T12:03:59;14.50;;;8.37;;
3901;SDS011;1966;49.908;9.156;2023-01-25T12:09:05;11.83;;;7.63;;
3901;SDS011;1966;49.908;9.156;2023-01-25T12:14:09;10.73;;;6.60;;
3901;SDS011;1966;49.908;9.156;2023-01-25T12:19:17;13.33;;;7.63;;
3901;SDS011;1966;49.908;9.156;2023-01-25T12:24:23;12.70;;;7.53;;
3901;SDS011;1966;49.908;9.156;2023-01-25T12:29:30;12.43;;;6.67;;
3901;SDS011;1966;49.908;9.156;2023-01-25T12:34:32;9.93;;;6.30;;
3901;SDS011;1966;49.908;9.156;2023-01-25T12:39:36;10.90;;;6.40;;
3901;SDS011;1966;49.908;9.156;2023-01-25T12:44:37;9.30;;;6.40;;
3901;SDS011;1966;49.908;9.156;2023-01-25T12:49:40;12.10;;;7.50;;
3901;SDS011;1966;49.908;9.156;2023-01-25T12:54:40;10.83;;;7.07;;
3901;SDS011;1966;49.908;9.156;2023-01-25T12:59:44;14.60;;;7.40;;
3901;SDS011;1966;49.908;9.156;2023-01-25T13:04:52;12.60;;;7.00;;
3901;SDS011;1966;49.908;9.156;2023-01-25T13:09:56;10.63;;;6.47;;
3901;SDS011;1966;49.908;9.156;2023-01-25T13:14:56;8.33;;;5.57;;
3901;SDS011;1966;49.908;9.156;2023-01-25T13:19:57;11.83;;;6.70;;
3901;SDS011;1966;49.908;9.156;2023-01-25T13:25:06;9.80;;;6.30;;
3901;SDS011;1966;49.908;9.156;2023-01-25T13:30:24;11.00;;;7.10;;
3901;SDS011;1966;49.908;9.156;2023-01-25T13:35:29;10.77;;;7.70;;
3901;SDS011;1966;49.908;9.156;2023-01-25T13:40:32;11.60;;;7.47;;
3901;SDS011;1966;49.908;9.156;2023-01-25T13:45:33;14.60;;;8.80;;
3901;SDS011;1966;49.908;9.156;2023-01-25T13:50:34;13.33;;;8.23;;
3901;SDS011;1966;49.908;9.156;2023-01-25T13:55:37;11.10;;;6.80;;
3901;SDS011;1966;49.908;9.156;2023-01-25T14:00:37;14.97;;;9.10;;
3901;SDS011;1966;49.908;9.156;2023-01-25T14:05:49;14.10;;;9.10;;
3901;SDS011;1966;49.908;9.156;2023-01-25T14:10:49;11.43;;;8.10;;
3901;SDS011;1966;49.908;9.156;2023-01-25T14:15:54;12.17;;;7.50;;
3901;SDS011;1966;49.908;9.156;2023-01-25T14:21:08;9.63;;;6.50;;
3901;SDS011;1966;49.908;9.156;2023-01-25T14:26:15;10.13;;;6.50;;
3901;SDS011;1966;49.908;9.156;2023-01-25T14:31:17;10.53;;;7.00;;
3901;SDS011;1966;49.908;9.156;2023-01-25T14:36:19;7.97;;;5.73;;
3901;SDS011;1966;49.908;9.156;2023-01-25T14:41:19;8.40;;;6.23;;
3901;SDS011;1966;49.908;9.156;2023-01-25T14:46:19;10.87;;;6.70;;
3901;SDS011;1966;49.908;9.156;2023-01-25T14:51:25;9.57;;;6.10;;
3901;SDS011;1966;49.908;9.156;2023-01-25T14:56:28;9.70;;;6.17;;
3901;SDS011;1966;49.908;9.156;2023-01-25T15:01:29;9.67;;;6.37;;
3901;SDS011;1966;49.908;9.156;2023-01-25T15:06:30;12.03;;;6.53;;
3901;SDS011;1966;49.908;9.156;2023-01-25T15:11:30;11.07;;;6.60;;
3901;SDS011;1966;49.908;9.156;2023-01-25T15:16:35;11.33;;;7.07;;
3901;SDS011;1966;49.908;9.156;2023-01-25T15:21:37;11.30;;;6.03;;
3901;SDS011;1966;49.908;9.156;2023-01-25T15:26:36;9.40;;;6.13;;
3901;SDS011;1966;49.908;9.156;2023-01-25T15:31:36;9.10;;;5.70;;
3901;SDS011;1966;49.908;9.156;2023-01-25T15:36:35;10.90;;;6.20;;
3901;SDS011;1966;49.908;9.156;2023-01-25T15:41:36;11.37;;;6.00;;
3901;SDS011;1966;49.908;9.156;2023-01-25T15:46:35;11.33;;;6.80;;
3901;SDS011;1966;49.908;9.156;2023-01-25T15:51:36;11.40;;;6.87;;
3901;SDS011;1966;49.908;9.156;2023-01-25T15:56:36;11.63;;;7.30;;
3901;SDS011;1966;49.908;9.156;2023-01-25T16:01:38;11.20;;;6.07;;
3901;SDS011;1966;49.908;9.156;2023-01-25T16:06:38;10.17;;;6.90;;
3901;SDS011;1966;49.908;9.156;2023-01-25T16:11:40;13.60;;;7.60;;
3901;SDS011;1966;49.908;9.156;2023-01-25T16:16:39;12.00;;;7.07;;
3901;SDS011;1966;49.908;9.156;2023-01-25T16:21:40;14.67;;;7.83;;
3901;SDS011;1966;49.908;9.156;2023-01-25T16:26:43;13.83;;;7.50;;
3901;SDS011;1966;49.908;9.156;2023-01-25T16:31:43;12.30;;;7.40;;
3901;SDS011;1966;49.908;9.156;2023-01-25T16:36:42;12.63;;;7.47;;
3901;SDS011;1966;49.908;9.156;2023-01-25T16:41:48;14.00;;;7.67;;
3901;SDS011;1966;49.908;9.156;2023-01-25T16:46:47;17.83;;;8.63;;
3901;SDS011;1966;49.908;9.156;2023-01-25T16:51:47;11.17;;;7.70;;
3901;SDS011;1966;49.908;9.156;2023-01-25T16:56:49;13.17;;;6.83;;
3901;SDS011;1966;49.908;9.156;2023-01-25T17:01:48;16.40;;;8.80;;
3901;SDS011;1966;49.908;9.156;2023-01-25T17:06:49;14.90;;;8.77;;
3901;SDS011;1966;49.908;9.156;2023-01-25T17:11:51;13.20;;;8.27;;
3901;SDS011;1966;49.908;9.156;2023-01-25T17:16:50;10.37;;;6.70;;
3901;SDS011;1966;49.908;9.156;2023-01-25T17:21:50;11.00;;;6.50;;
3901;SDS011;1966;49.908;9.156;2023-01-25T17:26:53;17.10;;;7.97;;
3901;SDS011;1966;49.908;9.156;2023-01-25T17:31:52;11.40;;;7.70;;
3901;SDS011;1966;49.908;9.156;2023-01-25T17:36:52;16.17;;;8.70;;
3901;SDS011;1966;49.908;9.156;2023-01-25T17:41:52;16.80;;;8.83;;
3901;SDS011;1966;49.908;9.156;2023-01-25T17:46:52;16.40;;;8.40;;
3901;SDS011;1966;49.908;9.156;2023-01-25T17:51:51;15.80;;;8.70;;
3901;SDS011;1966;49.908;9.156;2023-01-25T17:56:50;14.00;;;8.50;;
3901;SDS011;1966;49.908;9.156;2023-01-25T18:01:52;13.30;;;8.30;;
3901;SDS011;1966;49.908;9.156;2023-01-25T18:06:51;13.70;;;7.97;;
3901;SDS011;1966;49.908;9.156;2023-01-25T18:11:51;15.80;;;9.23;;
3901;SDS011;1966;49.908;9.156;2023-01-25T18:16:50;13.40;;;8.77;;
3901;SDS011;1966;49.908;9.156;2023-01-25T18:21:51;15.37;;;8.70;;
3901;SDS011;1966;49.908;9.156;2023-01-25T18:26:50;15.90;;;8.80;;
3901;SDS011;1966;49.908;9.156;2023-01-25T18:31:50;13.70;;;7.97;;
3901;SDS011;1966;49.908;9.156;2023-01-25T18:36:51;15.40;;;8.43;;
3901;SDS011;1966;49.908;9.156;2023-01-25T18:41:55;15.97;;;9.50;;
3901;SDS011;1966;49.908;9.156;2023-01-25T18:46:54;17.83;;;11.13;;
3901;SDS011;1966;49.908;9.156;2023-01-25T18:51:55;18.30;;;10.13;;
3901;SDS011;1966;49.908;9.156;2023-01-25T18:56:54;17.37;;;10.13;;
3901;SDS011;1966;49.908;9.156;2023-01-25T19:01:54;16.57;;;9.10;;
3901;SDS011;1966;49.908;9.156;2023-01-25T19:06:53;14.97;;;9.37;;
3901;SDS011;1966;49.908;9.156;2023-01-25T19:11:55;14.30;;;8.70;;
3901;SDS011;1966;49.908;9.156;2023-01-25T19:16:55;18.57;;;9.97;;
3901;SDS011;1966;49.908;9.156;2023-01-25T19:21:54;18.13;;;9.50;;
3901;SDS011;1966;49.908;9.156;2023-01-25T19:26:53;14.93;;;9.27;;
3901;SDS011;1966;49.908;9.156;2023-01-25T19:31:54;20.73;;;12.17;;
3901;SDS011;1966;49.908;9.156;2023-01-25T19:36:53;17.43;;;10.73;;
3901;SDS011;1966;49.908;9.156;2023-01-25T19:41:52;15.43;;;9.40;;
3901;SDS011;1966;49.908;9.156;2023-01-25T19:46:54;14.40;;;9.30;;
3901;SDS011;1966;49.908;9.156;2023-01-25T19:51:53;15.13;;;9.00;;
3901;SDS011;1966;49.908;9.156;2023-01-25T19:56:52;15.40;;;9.33;;
3901;SDS011;1966;49.908;9.156;2023-01-25T20:01:51;15.13;;;9.47;;
3901;SDS011;1966;49.908;9.156;2023-01-25T20:06:52;13.67;;;8.57;;
3901;SDS011;1966;49.908;9.156;2023-01-25T20:11:53;16.43;;;9.70;;
3901;SDS011;1966;49.908;9.156;2023-01-25T20:16:52;14.37;;;8.53;;
3901;SDS011;1966;49.908;9.156;2023-01-25T20:21:53;18.63;;;9.23;;
3901;SDS011;1966;49.908;9.156;2023-01-25T20:26:52;17.97;;;10.43;;
3901;SDS011;1966;49.908;9.156;2023-01-25T20:31:55;18.87;;;10.40;;
3901;SDS011;1966;49.908;9.156;2023-01-25T20:36:56;20.63;;;10.57;;
3901;SDS011;1966;49.908;9.156;2023-01-25T20:41:57;20.83;;;11.47;;
3901;SDS011;1966;49.908;9.156;2023-01-25T20:46:57;20.37;;;11.00;;
3901;SDS011;1966;49.908;9.156;2023-01-25T20:51:58;23.40;;;11.70;;
3901;SDS011;1966;49.908;9.156;2023-01-25T20:56:57;23.10;;;12.30;;
3901;SDS011;1966;49.908;9.156;2023-01-25T21:01:56;21.73;;;10.83;;
3901;SDS011;1966;49.908;9.156;2023-01-25T21:06:55;22.43;;;11.67;;
3901;SDS011;1966;49.908;9.156;2023-01-25T21:11:56;19.37;;;10.57;;
3901;SDS011;1966;49.908;9.156;2023-01-25T21:16:55;20.90;;;10.63;;
3901;SDS011;1966;49.908;9.156;2023-01-25T21:21:54;20.33;;;10.90;;
3901;SDS011;1966;49.908;9.156;2023-01-25T21:26:54;24.60;;;11.47;;
3901;SDS011;1966;49.908;9.156;2023-01-25T21:31:54;20.80;;;10.20;;
3901;SDS011;1966;49.908;9.156;2023-01-25T21:36:55;14.83;;;9.60;;
3901;SDS011;1966;49.908;9.156;2023-01-25T21:41:55;18.50;;;10.23;;
3901;SDS011;1966;49.908;9.156;2023-01-25T21:46:56;19.40;;;10.57;;
3901;SDS011;1966;49.908;9.156;2023-01-25T21:51:55;19.33;;;11.37;;
3901;SDS011;1966;49.908;9.156;2023-01-25T21:56:58;20.67;;;10.73;;
3901;SDS011;1966;49.908;9.156;2023-01-25T22:01:59;21.23;;;12.13;;
3901;SDS011;1966;49.908;9.156;2023-01-25T22:06:58;17.03;;;11.07;;
3901;SDS011;1966;49.908;9.156;2023-01-25T22:11:57;21.77;;;11.80;;
3901;SDS011;1966;49.908;9.156;2023-01-25T22:16:56;16.77;;;10.70;;
3901;SDS011;1966;49.908;9.156;2023-01-25T22:21:57;21.27;;;11.00;;
3901;SDS011;1966;49.908;9.156;2023-01-25T22:26:57;19.17;;;10.20;;
3901;SDS011;1966;49.908;9.156;2023-01-25T22:31:56;20.43;;;11.03;;
3901;SDS011;1966;49.908;9.156;2023-01-25T22:36:57;20.97;;;10.87;;
3901;SDS011;1966;49.908;9.156;2023-01-25T22:41:56;20.87;;;11.27;;
3901;SDS011;1966;49.908;9.156;2023-01-25T22:46:55;18.37;;;10.70;;
3901;SDS011;1966;49.908;9.156;2023-01-25T22:51:55;16.43;;;10.03;;
3901;SDS011;1966;49.908;9.156;2023-01-25T22:56:55;18.87;;;10.53;;
3901;SDS011;1966;49.908;9.156;2023-01-25T23:01:55;19.33;;;9.87;;
3901;SDS011;1966;49.908;9.156;2023-01-25T23:06:56;18.50;;;10.80;;
3901;SDS011;1966;49.908;9.156;2023-01-25T23:12:01;19.63;;;11.10;;
3901;SDS011;1966;49.908;9.156;2023-01-25T23:17:00;18.87;;;10.13;;
3901;SDS011;1966;49.908;9.156;2023-01-25T23:22:13;17.60;;;10.63;;
3901;SDS011;1966;49.908;9.156;2023-01-25T23:27:14;18.83;;;9.83;;
3901;SDS011;1966;49.908;9.156;2023-01-25T23:32:13;19.30;;;10.73;;
3901;SDS011;1966;49.908;9.156;2023-01-25T23:37:12;18.10;;;9.83;;
3901;SDS011;1966;49.908;9.156;2023-01-25T23:42:11;15.37;;;9.23;;
3901;SDS011;1966;49.908;9.156;2023-01-25T23:47:12;19.57;;;10.67;;
3901;SDS011;1966;49.908;9.156;2023-01-25T23:52:11;20.47;;;10.43;;
3901;SDS011;1966;49.908;9.156;2023-01-25T23:57:10;19.07;;;10.23;;
